createdAt,value
2019-03-25T00:01:25.706Z,53.50
2019-03-25T00:03:55.717Z,53.70
2019-03-25T00:06:25.678Z,53.60
2019-03-25T00:09:04.898Z,53.50
2019-03-25T00:11:27.024Z,53.60
2019-03-25T00:13:56.777Z,53.50
2019-03-25T00:16:26.680Z,53.40
2019-03-25T00:18:56.715Z,53.30
2019-03-25T00:21:30.878Z,53.20
2019-03-25T00:24:00.762Z,53.50
2019-03-25T00:26:30.581Z,53.30
2019-03-25T00:29:00.694Z,53.40
2019-03-25T00:31:30.369Z,53.60
2019-03-25T00:34:00.179Z,53.10
2019-03-25T00:36:30.137Z,53.30
2019-03-25T00:38:59.907Z,53.30
2019-03-25T00:41:29.816Z,53.10
2019-03-25T00:43:59.483Z,53.30
2019-03-25T00:46:29.364Z,53.20
2019-03-25T00:48:59.198Z,53.30
2019-03-25T00:51:29.232Z,53.10
2019-03-25T00:53:59.131Z,53.40
2019-03-25T00:56:29.038Z,53.20
2019-03-25T00:58:58.931Z,53.50
2019-03-25T01:01:28.894Z,53.30
2019-03-25T01:03:58.678Z,53.40
2019-03-25T01:06:30.932Z,53.10
2019-03-25T01:09:00.800Z,53.40
2019-03-25T01:11:30.844Z,53.00
2019-03-25T01:14:00.701Z,53.70
2019-03-25T01:16:30.676Z,53.20
2019-03-25T01:19:00.491Z,53.30
2019-03-25T01:21:30.391Z,53.10
2019-03-25T01:24:00.346Z,53.20
2019-03-25T01:26:30.294Z,53.30
2019-03-25T01:29:00.148Z,53.20
2019-03-25T01:31:30.156Z,53.30
2019-03-25T01:33:59.984Z,53.10
2019-03-25T01:36:29.969Z,53.30
2019-03-25T01:38:59.909Z,53.10
2019-03-25T01:41:29.773Z,53.00
2019-03-25T01:43:59.830Z,53.10
2019-03-25T01:46:31.853Z,53.50
2019-03-25T01:49:01.761Z,53.40
2019-03-25T01:51:31.662Z,53.10
2019-03-25T01:54:01.541Z,53.20
2019-03-25T01:56:31.537Z,53.20
2019-03-25T01:59:01.507Z,53.20
2019-03-25T02:01:31.960Z,53.30
2019-03-25T02:04:01.800Z,53.10
2019-03-25T02:06:43.074Z,53.20
2019-03-25T02:09:12.816Z,53.40
2019-03-25T02:11:42.660Z,53.30
2019-03-25T02:14:12.394Z,53.10
2019-03-25T02:16:42.365Z,53.20
2019-03-25T02:19:12.206Z,53.30
2019-03-25T02:21:42.041Z,53.20
2019-03-25T02:24:23.868Z,53.40
2019-03-25T02:26:55.049Z,53.30
2019-03-25T02:29:25.016Z,53.40
2019-03-25T02:31:55.119Z,53.60
2019-03-25T02:34:24.929Z,53.50
2019-03-25T02:36:54.935Z,53.50
2019-03-25T02:39:24.745Z,53.50
2019-03-25T02:42:01.171Z,53.50
2019-03-25T02:44:30.930Z,53.20
2019-03-25T02:47:00.954Z,53.50
2019-03-25T02:49:30.880Z,53.40
2019-03-25T02:52:00.664Z,53.30
2019-03-25T02:54:30.647Z,53.40
2019-03-25T02:57:00.710Z,53.50
2019-03-25T02:59:30.704Z,53.50
2019-03-25T03:02:00.553Z,53.40
2019-03-25T03:04:30.928Z,53.80
2019-03-25T03:07:00.856Z,53.80
2019-03-25T03:09:30.732Z,53.50
2019-03-25T03:12:00.739Z,53.50
2019-03-25T03:14:30.532Z,53.60
2019-03-25T03:17:00.585Z,53.80
2019-03-25T03:19:30.442Z,53.80
2019-03-25T03:22:00.270Z,53.70
2019-03-25T03:24:31.068Z,53.90
2019-03-25T03:27:02.327Z,53.70
2019-03-25T03:29:32.326Z,54.10
2019-03-25T03:32:02.352Z,53.80
2019-03-25T03:34:32.390Z,54.10
2019-03-25T03:37:04.782Z,53.90
2019-03-25T03:39:36.089Z,54.10
2019-03-25T03:42:05.959Z,53.90
2019-03-25T03:44:35.915Z,54.00
2019-03-25T03:47:07.670Z,54.00
2019-03-25T03:49:37.396Z,54.10
2019-03-25T03:52:07.764Z,54.10
2019-03-25T03:54:37.667Z,54.20
2019-03-25T03:57:07.504Z,54.40
2019-03-25T03:59:37.410Z,54.40
2019-03-25T04:02:10.147Z,54.50
2019-03-25T04:04:40.179Z,54.60
2019-03-25T04:07:10.113Z,54.70
2019-03-25T04:09:40.078Z,54.80
2019-03-25T04:12:25.153Z,54.80
2019-03-25T04:14:55.048Z,55.00
2019-03-25T04:17:24.820Z,55.20
2019-03-25T04:19:54.661Z,55.20
2019-03-25T04:22:24.508Z,55.20
2019-03-25T04:24:54.511Z,55.30
2019-03-25T04:27:24.239Z,55.50
2019-03-25T04:29:57.307Z,55.50
2019-03-25T04:32:27.268Z,55.70
2019-03-25T04:34:57.078Z,55.60
2019-03-25T04:37:31.244Z,55.70
2019-03-25T04:40:01.131Z,55.70
2019-03-25T04:42:30.961Z,55.80
2019-03-25T04:45:00.906Z,55.90
2019-03-25T04:47:31.918Z,56.00
2019-03-25T04:50:01.745Z,56.00
2019-03-25T04:52:32.603Z,56.00
2019-03-25T04:55:02.595Z,56.10
2019-03-25T04:57:32.575Z,56.10
2019-03-25T05:00:02.398Z,56.10
2019-03-25T05:02:38.182Z,56.10
2019-03-25T05:05:19.079Z,56.20
2019-03-25T05:07:49.035Z,56.20
2019-03-25T05:10:18.882Z,56.20
2019-03-25T05:12:48.848Z,56.40
2019-03-25T05:15:19.106Z,56.30
2019-03-25T05:17:49.563Z,56.40
2019-03-25T05:20:25.118Z,56.50
2019-03-25T05:22:55.085Z,56.50
2019-03-25T05:25:24.858Z,56.50
2019-03-25T05:27:54.814Z,56.40
2019-03-25T05:30:24.815Z,56.70
2019-03-25T05:32:55.181Z,56.50
2019-03-25T05:35:25.116Z,56.60
2019-03-25T05:37:55.212Z,56.70
2019-03-25T05:40:31.200Z,56.70
2019-03-25T05:43:01.181Z,56.70
2019-03-25T05:45:31.047Z,56.70
2019-03-25T05:48:00.975Z,56.80
2019-03-25T05:50:30.876Z,56.80
2019-03-25T05:53:02.223Z,56.80
2019-03-25T05:55:32.172Z,56.80
2019-03-25T05:58:02.026Z,56.90
2019-03-25T06:00:34.400Z,56.90
2019-03-25T06:03:04.226Z,57.10
2019-03-25T06:05:34.226Z,56.90
2019-03-25T06:08:04.058Z,56.90
2019-03-25T06:10:37.236Z,57.10
2019-03-25T06:13:07.319Z,57.20
2019-03-25T06:15:37.095Z,57.10
2019-03-25T06:18:07.149Z,57.10
2019-03-25T06:20:37.994Z,57.10
2019-03-25T06:23:08.008Z,57.10
2019-03-25T06:25:37.871Z,57.10
2019-03-25T06:28:07.718Z,57.10
2019-03-25T06:30:37.656Z,57.10
2019-03-25T06:33:12.501Z,57.20
2019-03-25T06:35:43.194Z,57.10
2019-03-25T06:38:16.073Z,57.10
2019-03-25T06:40:45.922Z,57.10
2019-03-25T06:43:15.828Z,57.10
2019-03-25T06:45:45.801Z,57.10
2019-03-25T06:48:15.698Z,57.10
2019-03-25T06:50:45.631Z,57.10
2019-03-25T06:53:15.561Z,57.10
2019-03-25T06:55:49.055Z,57.20
2019-03-25T06:58:19.075Z,57.20
2019-03-25T07:00:48.962Z,57.30
2019-03-25T07:03:18.846Z,57.40
2019-03-25T07:05:48.807Z,57.40
2019-03-25T07:08:19.591Z,57.40
2019-03-25T07:10:55.207Z,57.50
2019-03-25T07:13:25.057Z,57.50
2019-03-25T07:15:54.928Z,57.50
2019-03-25T07:18:24.919Z,57.60
2019-03-25T07:20:54.808Z,57.60
2019-03-25T07:23:24.740Z,57.70
2019-03-25T07:26:01.163Z,57.60
2019-03-25T07:28:31.201Z,57.70
2019-03-25T07:31:00.969Z,57.70
2019-03-25T07:33:30.986Z,57.80
2019-03-25T07:36:00.858Z,57.90
2019-03-25T07:38:30.864Z,57.90
2019-03-25T07:41:07.250Z,57.90
2019-03-25T07:43:39.301Z,57.90
2019-03-25T07:46:25.232Z,57.90
2019-03-25T07:48:55.337Z,57.90
2019-03-25T07:51:25.362Z,57.90
2019-03-25T07:53:55.303Z,57.90
2019-03-25T07:56:25.176Z,58.00
2019-03-25T07:58:55.560Z,58.00
2019-03-25T08:01:26.285Z,57.90
2019-03-25T08:03:56.110Z,58.00
2019-03-25T08:06:44.529Z,57.90
2019-03-25T08:09:14.253Z,58.00
2019-03-25T08:11:43.715Z,58.00
2019-03-25T08:14:13.118Z,58.00
2019-03-25T08:16:42.705Z,58.00
2019-03-25T08:19:12.122Z,58.00
2019-03-25T08:21:41.678Z,58.00
2019-03-25T08:24:11.182Z,58.10
2019-03-25T08:26:42.856Z,58.10
2019-03-25T08:29:12.455Z,58.10
2019-03-25T08:31:42.294Z,58.10
2019-03-25T08:34:11.664Z,58.10
2019-03-25T08:36:41.227Z,58.10
2019-03-25T08:39:10.669Z,58.20
2019-03-25T08:41:40.073Z,58.10
2019-03-25T08:44:09.478Z,58.10
2019-03-25T08:46:39.189Z,58.30
2019-03-25T08:49:08.712Z,58.20
2019-03-25T08:51:43.519Z,58.20
2019-03-25T08:54:12.883Z,58.20
2019-03-25T08:56:42.509Z,58.20
2019-03-25T08:59:12.059Z,58.20
2019-03-25T09:01:41.619Z,58.20
2019-03-25T09:04:11.050Z,58.20
2019-03-25T09:06:40.631Z,58.30
2019-03-25T09:09:10.134Z,58.30
2019-03-25T09:11:39.557Z,58.30
2019-03-25T09:14:09.134Z,58.40
2019-03-25T09:16:38.588Z,58.40
2019-03-25T09:19:08.091Z,58.40
2019-03-25T09:21:37.574Z,58.50
2019-03-25T09:24:07.167Z,58.60
2019-03-25T09:26:37.009Z,58.60
2019-03-25T09:29:06.481Z,58.70
2019-03-25T09:31:36.901Z,58.80
2019-03-25T09:34:07.116Z,58.80
2019-03-25T09:36:36.647Z,58.80
2019-03-25T09:39:07.564Z,58.90
2019-03-25T09:41:37.306Z,58.90
2019-03-25T09:44:06.859Z,58.90
2019-03-25T09:46:36.313Z,58.90
2019-03-25T09:49:05.847Z,59.00
2019-03-25T09:51:35.318Z,59.00
2019-03-25T09:54:04.906Z,59.10
2019-03-25T09:56:34.418Z,59.10
2019-03-25T09:59:03.926Z,59.10
2019-03-25T10:01:33.742Z,59.20
2019-03-25T10:04:03.344Z,59.20
2019-03-25T10:06:32.754Z,59.20
2019-03-25T10:09:02.362Z,59.30
2019-03-25T10:11:31.855Z,59.30
2019-03-25T10:14:01.361Z,59.30
2019-03-25T10:16:30.853Z,59.30
2019-03-25T10:19:00.300Z,59.50
2019-03-25T10:21:29.863Z,59.50
2019-03-25T10:23:59.404Z,59.50
2019-03-25T10:26:28.798Z,59.50
2019-03-25T10:28:58.207Z,59.60
2019-03-25T10:31:27.817Z,59.60
2019-03-25T10:33:57.401Z,59.50
2019-03-25T10:36:27.029Z,59.50
2019-03-25T10:38:56.804Z,59.60
2019-03-25T10:41:26.407Z,59.50
2019-03-25T10:43:56.302Z,59.50
2019-03-25T10:46:25.666Z,59.50
2019-03-25T10:48:55.228Z,59.40
2019-03-25T10:51:24.755Z,59.50
2019-03-25T10:53:54.168Z,59.40
2019-03-25T10:56:23.774Z,59.40
2019-03-25T10:58:58.060Z,59.30
2019-03-25T11:01:25.322Z,59.30
2019-03-25T11:03:55.010Z,59.40
2019-03-25T11:06:24.374Z,59.40
2019-03-25T11:08:53.870Z,59.30
2019-03-25T11:11:23.586Z,59.30
2019-03-25T11:13:53.173Z,59.30
2019-03-25T11:16:22.738Z,59.20
2019-03-25T11:18:52.506Z,59.20
2019-03-25T11:21:22.106Z,59.10
2019-03-25T11:23:51.458Z,59.10
2019-03-25T11:26:21.613Z,59.10
2019-03-25T11:28:51.341Z,59.10
2019-03-25T11:31:20.694Z,59.20
2019-03-25T11:33:50.228Z,59.20
2019-03-25T11:36:19.862Z,59.20
2019-03-25T11:38:49.200Z,59.20
2019-03-25T11:41:18.919Z,59.20
2019-03-25T11:43:48.458Z,59.20
2019-03-25T11:46:17.884Z,59.30
2019-03-25T11:48:47.374Z,59.30
2019-03-25T11:51:16.874Z,59.30
2019-03-25T11:53:46.406Z,59.30
2019-03-25T11:56:15.902Z,59.40
2019-03-25T11:58:45.419Z,59.30
2019-03-25T12:01:14.902Z,59.40
2019-03-25T12:03:44.421Z,59.40
2019-03-25T12:06:13.926Z,59.40
2019-03-25T12:08:43.547Z,59.30
2019-03-25T12:11:13.427Z,59.20
2019-03-25T12:13:42.859Z,59.30
2019-03-25T12:16:12.378Z,59.30
2019-03-25T12:18:41.854Z,59.30
2019-03-25T12:21:11.359Z,59.20
2019-03-25T12:23:40.872Z,58.90
2019-03-25T12:26:10.452Z,59.00
2019-03-25T12:28:39.883Z,59.20
2019-03-25T12:31:09.461Z,59.20
2019-03-25T12:33:38.887Z,59.20
2019-03-25T12:36:08.466Z,59.30
2019-03-25T12:38:37.914Z,59.30
2019-03-25T12:41:07.470Z,59.20
2019-03-25T12:43:36.919Z,59.20
2019-03-25T12:46:06.423Z,59.10
2019-03-25T12:48:35.926Z,59.10
2019-03-25T12:51:05.509Z,59.10
2019-03-25T12:53:35.356Z,59.10
2019-03-25T12:56:04.699Z,59.20
2019-03-25T12:58:34.423Z,58.90
2019-03-25T13:01:06.872Z,59.00
2019-03-25T13:03:36.249Z,58.70
2019-03-25T13:06:05.602Z,58.90
2019-03-25T13:08:35.335Z,58.90
2019-03-25T13:11:05.308Z,58.90
2019-03-25T13:13:35.083Z,59.00
2019-03-25T13:16:04.775Z,58.90
2019-03-25T13:18:34.498Z,59.00
2019-03-25T13:21:04.069Z,59.00
2019-03-25T13:23:33.980Z,59.10
2019-03-25T13:26:03.897Z,59.10
2019-03-25T13:28:33.330Z,59.30
2019-03-25T13:31:02.898Z,59.20
2019-03-25T13:33:32.376Z,59.30
2019-03-25T13:36:01.821Z,59.30
2019-03-25T13:38:31.423Z,59.40
2019-03-25T13:41:00.925Z,59.40
2019-03-25T13:43:30.502Z,59.50
2019-03-25T13:46:05.328Z,59.50
2019-03-25T13:48:31.019Z,59.60
2019-03-25T13:51:00.510Z,59.60
2019-03-25T13:53:30.078Z,59.70
2019-03-25T13:55:59.519Z,59.80
2019-03-25T13:58:29.014Z,59.80
2019-03-25T14:00:58.588Z,59.90
2019-03-25T14:03:28.022Z,60.00
2019-03-25T14:05:57.520Z,60.00
2019-03-25T14:08:27.056Z,60.00
2019-03-25T14:10:56.403Z,60.10
2019-03-25T14:13:26.050Z,60.20
2019-03-25T14:15:55.669Z,60.30
2019-03-25T14:18:25.190Z,60.30
2019-03-25T14:20:54.566Z,60.30
2019-03-25T14:23:24.158Z,60.30
2019-03-25T14:25:53.739Z,60.30
2019-03-25T14:28:23.145Z,60.30
2019-03-25T14:30:52.588Z,60.30
2019-03-25T14:33:22.018Z,60.40
2019-03-25T14:35:51.599Z,60.40
2019-03-25T14:38:21.313Z,60.40
2019-03-25T14:40:51.099Z,60.50
2019-03-25T14:43:20.601Z,60.50
2019-03-25T14:45:50.094Z,60.40
2019-03-25T14:48:19.540Z,60.50
2019-03-25T14:50:49.157Z,60.50
2019-03-25T14:53:18.951Z,60.50
2019-03-25T14:55:48.581Z,60.60
2019-03-25T14:58:17.951Z,60.50
2019-03-25T15:00:48.370Z,60.50
2019-03-25T15:03:17.740Z,60.60
2019-03-25T15:05:47.090Z,60.60
2019-03-25T15:08:16.871Z,60.60
2019-03-25T15:10:53.636Z,60.60
2019-03-25T15:13:17.438Z,60.60
2019-03-25T15:15:46.887Z,60.60
2019-03-25T15:18:16.530Z,60.60
2019-03-25T15:20:45.966Z,60.60
2019-03-25T15:23:15.537Z,60.60
2019-03-25T15:25:45.050Z,60.70
2019-03-25T15:28:14.552Z,60.70
2019-03-25T15:30:44.002Z,60.70
2019-03-25T15:33:32.327Z,60.80
2019-03-25T15:36:01.679Z,60.80
2019-03-25T15:38:50.075Z,60.80
2019-03-25T15:41:19.697Z,60.90
2019-03-25T15:43:49.182Z,60.80
2019-03-25T15:46:18.545Z,60.90
2019-03-25T15:48:48.189Z,61.00
2019-03-25T15:51:17.519Z,61.00
2019-03-25T15:53:46.878Z,61.00
2019-03-25T15:56:16.299Z,61.00
2019-03-25T15:58:45.638Z,61.00
2019-03-25T16:01:15.180Z,61.10
2019-03-25T16:03:44.605Z,61.10
2019-03-25T16:06:14.314Z,61.10
2019-03-25T16:08:43.820Z,61.20
2019-03-25T16:11:13.229Z,61.20
2019-03-25T16:13:43.040Z,61.30
2019-03-25T16:16:12.642Z,61.20
2019-03-25T16:18:42.693Z,61.20
2019-03-25T16:21:12.166Z,61.30
2019-03-25T16:23:41.904Z,61.30
2019-03-25T16:26:11.605Z,61.30
2019-03-25T16:28:41.091Z,61.30
2019-03-25T16:31:10.672Z,61.30
2019-03-25T16:33:40.098Z,61.40
2019-03-25T16:36:09.456Z,61.40
2019-03-25T16:38:39.109Z,61.40
2019-03-25T16:41:08.707Z,61.40
2019-03-25T16:43:38.530Z,61.50
2019-03-25T16:46:07.975Z,61.40
2019-03-25T16:48:37.595Z,61.40
2019-03-25T16:51:07.060Z,61.40
2019-03-25T16:53:36.529Z,61.40
2019-03-25T16:56:06.179Z,61.30
2019-03-25T16:58:35.620Z,61.40
2019-03-25T17:01:09.904Z,61.40
2019-03-25T17:03:36.186Z,61.40
2019-03-25T17:06:05.523Z,61.40
2019-03-25T17:08:35.292Z,61.30
2019-03-25T17:11:04.760Z,61.30
2019-03-25T17:13:34.222Z,61.30
2019-03-25T17:16:03.575Z,61.30
2019-03-25T17:18:52.158Z,61.30
2019-03-25T17:21:22.048Z,61.30
2019-03-25T17:23:54.092Z,61.30
2019-03-25T17:26:24.026Z,61.30
2019-03-25T17:28:55.495Z,61.30
2019-03-25T17:31:25.554Z,61.20
2019-03-25T17:33:55.399Z,61.20
2019-03-25T17:36:25.289Z,61.20
2019-03-25T17:38:55.126Z,61.20
2019-03-25T17:41:25.079Z,61.10
2019-03-25T17:43:54.895Z,61.20
2019-03-25T17:46:31.689Z,61.10
2019-03-25T17:49:01.695Z,61.20
2019-03-25T17:51:37.661Z,61.10
2019-03-25T17:54:07.570Z,61.10
2019-03-25T17:56:40.288Z,61.10
2019-03-25T17:59:10.196Z,61.10
2019-03-25T18:01:40.190Z,61.20
2019-03-25T18:04:10.110Z,61.20
2019-03-25T18:06:39.952Z,61.20
2019-03-25T18:09:10.656Z,61.20
2019-03-25T18:11:43.599Z,61.20
2019-03-25T18:14:13.440Z,61.20
2019-03-25T18:16:49.788Z,61.20
2019-03-25T18:19:25.645Z,61.20
2019-03-25T18:21:55.705Z,61.10
2019-03-25T18:24:31.556Z,61.10
2019-03-25T18:27:02.935Z,61.20
2019-03-25T18:29:32.720Z,61.10
2019-03-25T18:32:02.638Z,61.10
2019-03-25T18:34:32.561Z,61.10
2019-03-25T18:37:07.688Z,61.20
2019-03-25T18:39:37.573Z,61.20
2019-03-25T18:42:09.890Z,61.20
2019-03-25T18:44:39.861Z,61.10
2019-03-25T18:47:09.666Z,61.20
2019-03-25T18:49:39.580Z,61.30
2019-03-25T18:52:09.559Z,61.10
2019-03-25T18:54:39.542Z,61.20
2019-03-25T18:57:09.418Z,61.20
2019-03-25T18:59:39.250Z,61.20
2019-03-25T19:02:19.741Z,61.20
2019-03-25T19:04:49.741Z,61.20
2019-03-25T19:07:19.817Z,61.20
2019-03-25T19:09:49.597Z,61.20
2019-03-25T19:12:19.639Z,61.20
2019-03-25T19:14:49.536Z,61.20
2019-03-25T19:17:25.623Z,61.20
2019-03-25T19:19:56.008Z,61.20
2019-03-25T19:22:25.966Z,61.30
2019-03-25T19:24:56.058Z,61.20
2019-03-25T19:27:26.466Z,61.20
2019-03-25T19:29:56.385Z,61.30
2019-03-25T19:32:31.620Z,61.30
2019-03-25T19:35:01.412Z,61.20
2019-03-25T19:37:37.688Z,61.30
2019-03-25T19:40:07.966Z,61.30
2019-03-25T19:42:37.888Z,61.30
2019-03-25T19:45:08.724Z,61.20
2019-03-25T19:47:38.639Z,61.30
2019-03-25T19:50:09.663Z,61.30
2019-03-25T19:52:39.574Z,61.40
2019-03-25T19:55:09.442Z,61.30
2019-03-25T19:57:43.675Z,61.30
2019-03-25T20:00:13.613Z,61.30
2019-03-25T20:02:43.740Z,61.30
2019-03-25T20:05:13.574Z,61.30
2019-03-25T20:07:43.725Z,61.30
2019-03-25T20:10:28.095Z,61.30
2019-03-25T20:12:58.772Z,61.30
2019-03-25T20:15:31.233Z,61.30
2019-03-25T20:18:00.151Z,61.30
2019-03-25T20:20:30.136Z,61.40
2019-03-25T20:22:59.995Z,61.40
2019-03-25T20:25:31.720Z,61.30
2019-03-25T20:28:01.673Z,61.30
2019-03-25T20:30:31.779Z,61.30
2019-03-25T20:33:01.588Z,61.40
2019-03-25T20:35:31.615Z,61.30
2019-03-25T20:38:01.582Z,61.30
2019-03-25T20:40:37.875Z,61.30
2019-03-25T20:43:07.614Z,61.30
2019-03-25T20:45:37.624Z,61.20
2019-03-25T20:48:08.352Z,61.20
2019-03-25T20:50:38.197Z,61.30
2019-03-25T20:53:08.119Z,61.20
2019-03-25T20:55:38.124Z,61.20
2019-03-25T20:58:08.105Z,61.20
2019-03-25T21:00:55.691Z,61.20
2019-03-25T21:03:25.693Z,61.20
2019-03-25T21:05:55.694Z,61.20
2019-03-25T21:08:25.859Z,61.20
2019-03-25T21:10:58.169Z,61.20
2019-03-25T21:13:28.262Z,61.10
2019-03-25T21:15:58.209Z,61.20
2019-03-25T21:18:28.000Z,61.10
2019-03-25T21:20:57.900Z,61.10
2019-03-25T21:23:27.985Z,61.20
2019-03-25T21:25:57.991Z,61.10
2019-03-25T21:28:27.985Z,61.10
2019-03-25T21:30:58.744Z,61.10
2019-03-25T21:33:28.855Z,61.10
2019-03-25T21:36:01.746Z,61.10
2019-03-25T21:38:31.583Z,61.00
2019-03-25T21:41:01.733Z,61.10
2019-03-25T21:43:31.741Z,61.10
2019-03-25T21:46:01.621Z,61.00
2019-03-25T21:48:31.491Z,61.00
2019-03-25T21:51:01.443Z,61.00
2019-03-25T21:53:31.283Z,61.00
2019-03-25T21:56:01.284Z,60.90
2019-03-25T21:58:31.824Z,61.00
2019-03-25T22:01:01.800Z,61.00
2019-03-25T22:03:31.589Z,61.00
2019-03-25T22:06:03.214Z,60.90
2019-03-25T22:08:37.847Z,61.00
2019-03-25T22:11:07.636Z,60.90
2019-03-25T22:13:37.609Z,60.90
2019-03-25T22:16:07.560Z,61.00
2019-03-25T22:18:44.820Z,60.90
2019-03-25T22:21:14.631Z,60.90
2019-03-25T22:23:44.684Z,60.90
2019-03-25T22:26:26.811Z,60.90
2019-03-25T22:28:56.660Z,60.90
2019-03-25T22:31:37.862Z,60.90
2019-03-25T22:34:07.965Z,60.90
2019-03-25T22:36:38.015Z,60.90
2019-03-25T22:39:08.593Z,60.80
2019-03-25T22:41:43.784Z,60.90
2019-03-25T22:44:14.062Z,60.90
2019-03-25T22:46:44.029Z,60.90
2019-03-25T22:49:13.913Z,60.80
2019-03-25T22:51:45.079Z,60.80
2019-03-25T22:54:14.920Z,60.80
2019-03-25T22:56:44.985Z,60.80
2019-03-25T22:59:19.723Z,60.80
2019-03-25T23:01:49.690Z,60.80
2019-03-25T23:04:19.695Z,60.80
2019-03-25T23:06:49.706Z,60.80
2019-03-25T23:09:19.631Z,60.80
2019-03-25T23:11:50.039Z,60.80
2019-03-25T23:14:20.011Z,60.80
2019-03-25T23:16:49.874Z,60.80
2019-03-25T23:19:42.759Z,60.90
2019-03-25T23:22:12.703Z,60.80
2019-03-25T23:24:42.662Z,60.80
2019-03-25T23:27:12.490Z,60.80
2019-03-25T23:29:42.564Z,60.80
2019-03-25T23:32:12.417Z,60.80
2019-03-25T23:34:42.077Z,60.80
2019-03-25T23:37:11.957Z,60.90
2019-03-25T23:39:41.909Z,60.80
2019-03-25T23:42:11.723Z,60.80
2019-03-25T23:44:47.580Z,60.90
2019-03-25T23:47:17.562Z,60.90
2019-03-25T23:49:47.520Z,60.80
2019-03-25T23:52:17.492Z,60.80
2019-03-25T23:54:47.499Z,60.80
2019-03-25T23:57:17.511Z,60.90
2019-03-25T23:59:49.825Z,60.90
